KSBP/SBP METAR and TAF weather

Enter ICAO airport designator
Station Type Date Time Source
KSBP METAR 2019/02/18 03:56 UTC NOAA

KSBP 180356Z 33005KT 10SM FEW047 FEW080 08/02 A3005 RMK AO2 SLP177 T00780022


Station Type Date Time Source
KSBP Decoded METAR 2019/02/18 03:56 UTC NOAA

SAN LUIS OBISPO MC CHESNEY, CA, United States (KSBP) 35-14N 120-38W 59M
Feb 17, 2019 - 10:56 PM EST / 2019.02.18 0356 UTC
Wind: from the NNW (330 degrees) at 6 MPH (5 KT):0
Visibility: 10 mile(s):0
Sky conditions: mostly clear
Temperature: 46.0 F (7.8 C)
Dew Point: 36.0 F (2.2 C)
Relative Humidity: 67%
Pressure (altimeter): 30.05 in. Hg (1017 hPa)
ob: KSBP 180356Z 33005KT 10SM FEW047 FEW080 08/02 A3005 RMK AO2 SLP177 T00780022
cycle: 4

Station Type Date Time Source
KSBP TAF 2019/02/17 18:51 UTC NOAA

TAF KSBP 171748Z 1718/1818 11008KT P6SM -SHRA FEW016 BKN027 OVC045
FM172100 31022G32KT P6SM VCSH BKN050
FM180200 31015KT P6SM BKN050
FM180700 32008KT P6SM SCT050
FM181300 VRB03KT P6SM SKC


Example: see airport list